createdAt,value
2019-02-26T00:02:23.602Z,5.80
2019-02-26T00:05:03.630Z,5.80
2019-02-26T00:07:44.353Z,5.80
2019-02-26T00:10:26.573Z,6.00
2019-02-26T00:13:05.126Z,6.00
2019-02-26T00:15:45.919Z,5.80
2019-02-26T00:18:27.130Z,5.90
2019-02-26T00:21:06.975Z,5.80
2019-02-26T00:23:46.666Z,6.00
2019-02-26T00:26:28.170Z,6.00
2019-02-26T00:29:08.484Z,6.00
2019-02-26T00:31:49.011Z,6.00
2019-02-26T00:34:30.519Z,6.00
2019-02-26T00:37:10.644Z,6.10
2019-02-26T00:39:51.782Z,6.00
2019-02-26T00:42:32.036Z,5.90
2019-02-26T00:45:11.918Z,6.00
2019-02-26T00:47:51.478Z,6.00
2019-02-26T00:50:34.508Z,5.80
2019-02-26T00:53:12.470Z,5.90
2019-02-26T00:55:54.335Z,6.00
2019-02-26T00:58:37.031Z,5.90
2019-02-26T01:01:15.329Z,6.10
2019-02-26T01:03:55.528Z,6.10
2019-02-26T01:06:35.494Z,6.00
2019-02-26T01:09:15.574Z,6.20
2019-02-26T01:11:55.035Z,6.00
2019-02-26T01:14:34.942Z,6.10
2019-02-26T01:17:14.906Z,6.10
2019-02-26T01:19:56.486Z,6.20
2019-02-26T01:22:37.851Z,6.20
2019-02-26T01:25:22.347Z,6.20
2019-02-26T01:28:00.596Z,6.20
2019-02-26T01:30:40.708Z,6.30
2019-02-26T01:33:22.329Z,6.30
2019-02-26T01:36:02.677Z,6.50
2019-02-26T01:38:44.385Z,6.40
2019-02-26T01:41:25.474Z,5.90
2019-02-26T01:44:05.764Z,6.30
2019-02-26T01:46:44.898Z,6.30
2019-02-26T01:49:25.855Z,6.40
2019-02-26T01:52:06.225Z,6.50
2019-02-26T01:54:46.798Z,6.40
2019-02-26T01:57:27.751Z,6.40
2019-02-26T02:00:07.606Z,6.50
2019-02-26T02:02:47.508Z,6.50
2019-02-26T02:05:28.846Z,6.30
2019-02-26T02:08:11.032Z,6.40
2019-02-26T02:10:49.631Z,6.40
2019-02-26T02:13:30.663Z,6.40
2019-02-26T02:16:11.117Z,6.30
2019-02-26T02:18:51.238Z,6.20
2019-02-26T02:21:33.304Z,6.20
2019-02-26T02:24:14.709Z,6.40
2019-02-26T02:26:55.578Z,6.40
2019-02-26T02:29:36.308Z,6.30
2019-02-26T02:32:16.383Z,6.30
2019-02-26T02:35:00.925Z,6.20
2019-02-26T02:37:37.271Z,6.30
2019-02-26T02:40:17.260Z,6.20
2019-02-26T02:42:56.562Z,6.30
2019-02-26T02:45:36.534Z,6.20
2019-02-26T02:48:16.710Z,6.30
2019-02-26T02:50:56.697Z,6.00
2019-02-26T02:53:34.202Z,6.10
2019-02-26T02:56:20.339Z,6.10
2019-02-26T02:59:00.028Z,6.20
2019-02-26T03:01:39.890Z,5.90
2019-02-26T03:04:06.432Z,6.10
2019-02-26T03:06:53.566Z,6.10
2019-02-26T03:09:37.117Z,6.10
2019-02-26T03:12:19.903Z,6.20
2019-02-26T03:15:02.059Z,5.90
2019-02-26T03:17:40.859Z,6.00
2019-02-26T03:20:22.318Z,6.00
2019-02-26T03:23:04.072Z,6.00
2019-02-26T03:25:44.549Z,6.00
2019-02-26T03:28:24.831Z,5.50
2019-02-26T03:31:04.980Z,5.90
2019-02-26T03:33:44.759Z,5.90
2019-02-26T03:36:24.120Z,5.90
2019-02-26T03:39:04.018Z,6.00
2019-02-26T03:41:45.796Z,5.80
2019-02-26T03:44:24.296Z,5.80
2019-02-26T03:47:04.527Z,5.80
2019-02-26T03:49:44.237Z,5.80
2019-02-26T03:52:23.470Z,5.80
2019-02-26T03:55:04.358Z,5.70
2019-02-26T03:57:47.555Z,5.80
2019-02-26T04:00:26.130Z,5.90
2019-02-26T04:03:09.092Z,5.90
2019-02-26T04:05:47.467Z,5.90
2019-02-26T04:08:30.093Z,5.90
2019-02-26T04:11:09.312Z,5.90
2019-02-26T04:13:51.552Z,5.80
2019-02-26T04:16:32.444Z,5.90
2019-02-26T04:19:11.638Z,5.70
2019-02-26T04:21:51.623Z,5.80
2019-02-26T04:24:33.289Z,5.60
2019-02-26T04:27:36.130Z,5.70
2019-02-26T04:30:16.227Z,5.60
2019-02-26T04:32:56.172Z,5.70
2019-02-26T04:35:36.310Z,5.60
2019-02-26T04:38:18.151Z,5.50
2019-02-26T04:41:00.232Z,5.60
2019-02-26T04:43:38.850Z,5.60
2019-02-26T04:46:18.371Z,5.50
2019-02-26T04:48:58.467Z,5.60
2019-02-26T04:51:41.514Z,5.70
2019-02-26T04:54:23.791Z,5.70
2019-02-26T04:57:01.626Z,5.50
2019-02-26T04:59:43.928Z,5.50
2019-02-26T05:02:23.224Z,5.60
2019-02-26T05:05:03.048Z,5.60
2019-02-26T05:07:45.041Z,5.60
2019-02-26T05:10:27.046Z,5.60
2019-02-26T05:13:07.340Z,5.70
2019-02-26T05:15:47.112Z,5.60
2019-02-26T05:18:28.537Z,5.50
2019-02-26T05:21:08.328Z,5.50
2019-02-26T05:23:46.607Z,5.60
2019-02-26T05:26:33.509Z,5.60
2019-02-26T05:29:13.225Z,5.30
2019-02-26T05:31:55.447Z,5.50
2019-02-26T05:34:34.114Z,5.60
2019-02-26T05:37:14.102Z,5.60
2019-02-26T05:39:54.105Z,5.60
2019-02-26T05:42:39.200Z,5.60
2019-02-26T05:45:18.589Z,5.70
2019-02-26T05:47:58.984Z,5.70
2019-02-26T05:53:35.074Z,5.70
2019-02-26T05:56:22.923Z,5.50
2019-02-26T05:59:06.822Z,5.80
2019-02-26T06:01:46.576Z,5.80
2019-02-26T06:04:26.180Z,5.80
2019-02-26T06:07:06.154Z,5.70
2019-02-26T06:09:48.000Z,5.60
2019-02-26T06:12:27.025Z,5.80
2019-02-26T06:15:07.524Z,5.80
2019-02-26T06:17:48.158Z,5.80
2019-02-26T06:20:32.176Z,5.90
2019-02-26T06:23:09.110Z,5.80
2019-02-26T06:25:58.118Z,6.10
2019-02-26T06:28:40.176Z,6.10
2019-02-26T06:31:19.882Z,6.40
2019-02-26T06:34:03.527Z,6.50
2019-02-26T06:36:42.004Z,6.50
2019-02-26T06:39:24.576Z,6.80
2019-02-26T06:42:05.206Z,6.80
2019-02-26T06:44:47.105Z,6.90
2019-02-26T06:47:27.971Z,7.20
2019-02-26T06:50:13.969Z,7.00
2019-02-26T06:52:54.925Z,7.00
2019-02-26T06:55:32.231Z,6.80
2019-02-26T06:58:11.794Z,6.70
2019-02-26T07:00:55.146Z,6.60
2019-02-26T07:03:32.884Z,6.50
2019-02-26T07:06:12.933Z,6.40
2019-02-26T07:08:53.489Z,6.60
2019-02-26T07:11:35.429Z,8.60
2019-02-26T07:14:14.574Z,10.30
2019-02-26T07:16:56.531Z,11.50
2019-02-26T07:19:38.026Z,10.40
2019-02-26T07:22:18.335Z,9.20
2019-02-26T07:24:57.457Z,8.30
2019-02-26T07:27:38.450Z,8.10
2019-02-26T07:30:18.438Z,7.60
2019-02-26T07:32:57.531Z,7.40
2019-02-26T07:35:39.620Z,7.10
2019-02-26T07:38:20.732Z,7.00
2019-02-26T07:41:01.878Z,6.90
2019-02-26T07:43:44.096Z,6.90
2019-02-26T07:46:22.903Z,6.60
2019-02-26T07:49:04.913Z,6.70
2019-02-26T07:51:44.117Z,6.70
2019-02-26T07:54:23.875Z,6.60
2019-02-26T07:57:02.594Z,6.60
2019-02-26T07:59:50.189Z,6.60
2019-02-26T08:02:32.385Z,6.70
2019-02-26T08:05:12.153Z,6.60
2019-02-26T08:07:53.875Z,6.70
2019-02-26T08:10:35.159Z,6.60
2019-02-26T08:13:11.638Z,6.70
2019-02-26T08:15:52.742Z,6.70
2019-02-26T08:18:32.581Z,6.80
2019-02-26T08:21:12.231Z,6.70
2019-02-26T08:23:52.775Z,6.90
2019-02-26T08:26:32.422Z,6.80
2019-02-26T08:29:12.441Z,6.70
2019-02-26T08:31:52.048Z,6.80
2019-02-26T08:34:32.685Z,7.00
2019-02-26T08:37:11.736Z,7.00
2019-02-26T08:39:48.972Z,6.90
2019-02-26T08:42:15.409Z,7.10
2019-02-26T08:45:01.619Z,7.00
2019-02-26T08:47:41.138Z,7.00
2019-02-26T08:50:18.545Z,7.20
2019-02-26T08:52:58.668Z,7.10
2019-02-26T08:55:38.475Z,7.20
2019-02-26T08:58:18.538Z,7.20
2019-02-26T09:00:58.525Z,7.30
2019-02-26T09:03:40.908Z,7.50
2019-02-26T09:06:19.853Z,7.40
2019-02-26T09:09:00.159Z,7.50
2019-02-26T09:11:40.622Z,7.50
2019-02-26T09:14:20.705Z,7.60
2019-02-26T09:17:02.157Z,7.50
2019-02-26T09:19:42.705Z,7.60
2019-02-26T09:22:26.070Z,7.70
2019-02-26T09:25:05.638Z,7.70
2019-02-26T09:27:45.060Z,7.80
2019-02-26T09:30:24.745Z,8.00
2019-02-26T09:33:06.361Z,8.10
2019-02-26T09:35:45.164Z,8.20
2019-02-26T09:38:25.890Z,8.20
2019-02-26T09:41:06.826Z,8.30
2019-02-26T09:43:48.119Z,8.30
2019-02-26T09:46:16.497Z,8.40
2019-02-26T09:49:04.617Z,8.40
2019-02-26T09:51:43.853Z,8.40
2019-02-26T09:54:23.927Z,8.50
2019-02-26T09:57:03.693Z,8.70
2019-02-26T09:59:42.941Z,8.80
2019-02-26T10:02:24.655Z,8.60
2019-02-26T10:05:03.787Z,8.60
2019-02-26T10:07:43.822Z,8.50
2019-02-26T10:10:25.310Z,8.70
2019-02-26T10:13:04.709Z,8.70
2019-02-26T10:15:44.837Z,8.70
2019-02-26T10:18:25.663Z,8.80
2019-02-26T10:21:08.565Z,8.80
2019-02-26T10:23:49.344Z,9.00
2019-02-26T10:26:30.608Z,9.20
2019-02-26T10:29:09.388Z,9.30
2019-02-26T10:34:30.525Z,9.80
2019-02-26T10:37:10.534Z,10.10
2019-02-26T10:39:52.233Z,10.50
2019-02-26T10:42:39.642Z,10.30
2019-02-26T10:45:12.737Z,10.20
2019-02-26T10:47:54.249Z,10.40
2019-02-26T10:50:33.854Z,10.80
2019-02-26T10:53:16.186Z,11.40
2019-02-26T11:01:55.302Z,11.90
2019-02-26T11:04:35.545Z,12.00
2019-02-26T11:07:15.547Z,12.20
2019-02-26T11:09:58.643Z,12.40
2019-02-26T11:12:37.322Z,12.30
2019-02-26T11:18:28.728Z,12.00
2019-02-26T11:20:56.010Z,11.70
2019-02-26T11:23:44.038Z,11.50
2019-02-26T11:29:38.793Z,11.60
2019-02-26T11:32:17.861Z,11.80
2019-02-26T11:34:58.022Z,11.80
2019-02-26T11:37:39.035Z,11.80
2019-02-26T11:40:20.311Z,12.20
2019-02-26T11:43:08.662Z,12.40
2019-02-26T11:45:41.990Z,12.40
2019-02-26T11:48:23.362Z,12.30
2019-02-26T11:51:03.186Z,12.60
2019-02-26T11:59:42.919Z,12.50
2019-02-26T12:02:26.695Z,11.80
2019-02-26T12:05:05.451Z,11.70
2019-02-26T12:07:46.141Z,12.20
2019-02-26T12:10:27.075Z,12.50
2019-02-26T12:13:07.700Z,12.70
2019-02-26T12:15:46.878Z,12.50
2019-02-26T12:18:26.958Z,12.40
2019-02-26T12:21:07.898Z,12.40
2019-02-26T12:23:47.382Z,12.60
2019-02-26T12:26:27.958Z,12.70
2019-02-26T12:32:22.368Z,12.60
2019-02-26T12:35:03.496Z,12.50
2019-02-26T12:37:43.399Z,12.30
2019-02-26T12:40:25.439Z,12.30
2019-02-26T12:43:06.616Z,12.00
2019-02-26T12:45:46.726Z,11.90
2019-02-26T12:48:26.808Z,12.10
2019-02-26T12:51:07.784Z,12.30
2019-02-26T12:53:50.037Z,11.90
2019-02-26T12:56:32.952Z,11.90
2019-02-26T12:59:11.035Z,12.00
2019-02-26T13:01:51.954Z,11.80
2019-02-26T13:04:31.182Z,11.80
2019-02-26T13:07:11.169Z,11.90
2019-02-26T13:09:54.961Z,11.80
2019-02-26T13:12:32.606Z,11.80
2019-02-26T13:15:12.505Z,11.80
2019-02-26T13:17:54.465Z,11.80
2019-02-26T13:20:33.350Z,11.70
2019-02-26T13:23:17.813Z,11.90
2019-02-26T13:25:54.373Z,12.00
2019-02-26T13:28:34.212Z,11.90
2019-02-26T13:31:13.543Z,12.00
2019-02-26T13:33:59.695Z,11.90
2019-02-26T13:36:42.760Z,11.80
2019-02-26T13:39:25.443Z,11.80
2019-02-26T13:42:09.198Z,11.50
2019-02-26T13:44:42.259Z,11.70
2019-02-26T13:47:22.402Z,11.40
2019-02-26T13:49:59.687Z,11.50
2019-02-26T13:52:39.625Z,11.40
2019-02-26T13:55:19.422Z,11.50
2019-02-26T13:57:58.911Z,11.40
2019-02-26T14:00:38.500Z,11.40
2019-02-26T14:03:18.497Z,11.40
2019-02-26T14:05:58.347Z,11.10
2019-02-26T14:08:35.859Z,11.00
2019-02-26T14:11:21.947Z,11.00
2019-02-26T14:14:01.583Z,10.90
2019-02-26T14:16:41.445Z,10.90
2019-02-26T14:19:20.665Z,10.90
2019-02-26T14:21:59.777Z,10.90
2019-02-26T14:24:39.962Z,10.80
2019-02-26T14:27:19.811Z,10.90
2019-02-26T14:30:01.023Z,10.80
2019-02-26T14:32:40.878Z,10.70
2019-02-26T14:35:20.125Z,10.80
2019-02-26T14:38:00.179Z,10.70
2019-02-26T14:40:40.226Z,10.70
2019-02-26T14:43:19.321Z,10.60
2019-02-26T14:45:56.749Z,10.70
2019-02-26T14:48:36.389Z,10.80
2019-02-26T14:51:17.730Z,10.70
2019-02-26T14:53:57.130Z,10.80
2019-02-26T14:59:49.405Z,10.50
2019-02-26T15:02:29.328Z,10.50
2019-02-26T15:05:08.501Z,10.30
2019-02-26T15:07:48.487Z,10.50
2019-02-26T15:10:28.318Z,10.30
2019-02-26T15:13:08.337Z,10.40
2019-02-26T15:15:48.380Z,10.30
2019-02-26T15:18:28.237Z,10.30
2019-02-26T15:21:08.288Z,10.20
2019-02-26T15:23:50.256Z,10.00
2019-02-26T15:26:27.526Z,10.10
2019-02-26T15:29:13.633Z,10.00
2019-02-26T15:31:53.130Z,10.00
2019-02-26T15:34:30.451Z,9.90
2019-02-26T15:37:10.177Z,9.90
2019-02-26T15:39:51.321Z,9.90
2019-02-26T15:42:31.349Z,9.80
2019-02-26T15:45:11.386Z,9.80
2019-02-26T15:47:51.319Z,9.70
2019-02-26T15:50:30.584Z,9.60
2019-02-26T15:53:10.047Z,9.60
2019-02-26T15:55:50.063Z,9.60
2019-02-26T15:58:30.075Z,9.50
2019-02-26T16:04:22.194Z,9.50
2019-02-26T16:07:01.333Z,9.40
2019-02-26T16:09:41.395Z,9.20
2019-02-26T16:12:21.482Z,8.80
2019-02-26T16:15:01.568Z,8.80
2019-02-26T16:17:41.407Z,8.70
2019-02-26T16:20:21.521Z,8.60
2019-02-26T16:26:00.077Z,8.80
2019-02-26T16:28:39.805Z,8.70
2019-02-26T16:31:19.277Z,8.40
2019-02-26T16:33:59.227Z,7.90
2019-02-26T16:36:38.493Z,7.70
2019-02-26T16:39:18.354Z,7.70
2019-02-26T16:41:58.707Z,7.50
2019-02-26T16:44:38.353Z,7.50
2019-02-26T16:47:18.586Z,7.50
2019-02-26T16:50:09.548Z,7.40
2019-02-26T16:52:40.252Z,7.30
2019-02-26T16:55:19.466Z,7.20
2019-02-26T16:58:02.261Z,7.40
2019-02-26T17:00:40.465Z,7.40
2019-02-26T17:03:19.765Z,7.20
2019-02-26T17:05:59.775Z,7.40
2019-02-26T17:08:40.006Z,7.10
2019-02-26T17:11:19.766Z,7.00
2019-02-26T17:13:59.782Z,7.20
2019-02-26T17:16:39.830Z,6.90
2019-02-26T17:22:17.884Z,6.90
2019-02-26T17:24:56.993Z,6.70
2019-02-26T17:27:36.552Z,6.60
2019-02-26T17:30:17.185Z,6.50
2019-02-26T17:32:56.402Z,6.40
2019-02-26T17:35:35.516Z,6.40
2019-02-26T17:38:15.478Z,6.50
2019-02-26T17:40:55.855Z,6.50
2019-02-26T17:43:35.333Z,6.70
2019-02-26T17:46:15.318Z,6.60
2019-02-26T17:48:55.409Z,6.40
2019-02-26T17:51:34.512Z,6.40
2019-02-26T17:54:13.931Z,6.20
2019-02-26T17:56:53.365Z,6.10
2019-02-26T17:59:33.186Z,6.30
2019-02-26T18:02:13.445Z,6.20
2019-02-26T18:04:53.540Z,6.20
2019-02-26T18:07:32.956Z,6.50
2019-02-26T18:10:13.521Z,6.60
2019-02-26T18:12:54.059Z,6.60
2019-02-26T18:15:33.923Z,6.90
2019-02-26T18:18:13.960Z,6.50
2019-02-26T18:24:06.509Z,6.70
2019-02-26T18:26:46.528Z,6.30
2019-02-26T18:29:26.225Z,6.50
2019-02-26T18:32:05.894Z,6.90
2019-02-26T18:34:46.186Z,7.00
2019-02-26T18:37:26.002Z,7.10
2019-02-26T18:40:05.129Z,6.90
2019-02-26T18:42:45.049Z,6.70
2019-02-26T18:45:28.086Z,6.90
2019-02-26T18:48:06.749Z,7.10
2019-02-26T18:50:46.741Z,6.90
2019-02-26T18:53:26.586Z,7.00
2019-02-26T18:56:06.901Z,7.10
2019-02-26T18:58:49.064Z,7.00
2019-02-26T19:01:28.478Z,7.20
2019-02-26T19:04:08.840Z,7.30
2019-02-26T19:06:48.815Z,7.10
2019-02-26T19:09:28.714Z,6.90
2019-02-26T19:12:07.978Z,6.80
2019-02-26T19:14:47.934Z,6.80
2019-02-26T19:17:27.399Z,6.90
2019-02-26T19:20:07.133Z,6.80
2019-02-26T19:22:33.390Z,7.20
2019-02-26T19:24:59.639Z,7.30
2019-02-26T19:27:45.922Z,7.10
2019-02-26T19:30:25.466Z,7.00
2019-02-26T19:33:05.491Z,7.00
2019-02-26T19:35:45.487Z,7.30
2019-02-26T19:38:27.524Z,7.30
2019-02-26T19:41:07.827Z,7.30
2019-02-26T19:43:47.000Z,7.40
2019-02-26T19:46:27.143Z,7.40
2019-02-26T19:49:07.103Z,7.50
2019-02-26T19:51:47.053Z,7.50
2019-02-26T19:54:27.293Z,7.20
2019-02-26T19:57:06.997Z,7.60
2019-02-26T19:59:46.856Z,7.60
2019-02-26T20:02:32.347Z,7.70
2019-02-26T20:05:12.885Z,7.80
2019-02-26T20:07:53.203Z,7.90
2019-02-26T20:10:32.693Z,8.00
2019-02-26T20:13:12.738Z,8.00
2019-02-26T20:15:54.862Z,8.00
2019-02-26T20:18:32.161Z,7.80
2019-02-26T20:21:11.877Z,7.70
2019-02-26T20:23:53.483Z,7.80
2019-02-26T20:26:32.902Z,7.80
2019-02-26T20:29:12.945Z,7.70
2019-02-26T20:31:55.383Z,7.70
2019-02-26T20:34:33.989Z,7.80
2019-02-26T20:37:13.437Z,7.70
2019-02-26T20:39:53.074Z,7.70
2019-02-26T20:42:33.258Z,7.60
2019-02-26T20:45:13.185Z,7.60
2019-02-26T20:47:52.296Z,7.50
2019-02-26T20:56:44.717Z,7.70
2019-02-26T20:59:24.106Z,7.50
2019-02-26T21:02:03.516Z,7.90
2019-02-26T21:04:44.489Z,7.90
2019-02-26T21:07:25.112Z,7.60
2019-02-26T21:10:04.536Z,8.00
2019-02-26T21:12:43.632Z,8.00
2019-02-26T21:15:22.854Z,8.10
2019-02-26T21:18:02.820Z,8.10
2019-02-26T21:20:42.428Z,8.30
2019-02-26T21:23:22.469Z,8.20
2019-02-26T21:26:03.382Z,8.10
2019-02-26T21:28:43.225Z,8.20
2019-02-26T21:31:22.375Z,7.80
2019-02-26T21:34:03.678Z,8.20
2019-02-26T21:36:40.913Z,8.20
2019-02-26T21:39:20.657Z,8.20
2019-02-26T21:41:59.805Z,8.20
2019-02-26T21:44:41.847Z,8.10
2019-02-26T21:47:21.836Z,8.10
2019-02-26T21:50:02.053Z,8.00
2019-02-26T21:52:42.748Z,8.00
2019-02-26T21:55:22.230Z,8.00
2019-02-26T21:58:02.066Z,8.00
2019-02-26T22:00:42.113Z,7.90
2019-02-26T22:03:24.576Z,7.90
2019-02-26T22:06:05.537Z,8.00
2019-02-26T22:08:41.965Z,8.10
2019-02-26T22:11:21.689Z,8.20
2019-02-26T22:14:02.841Z,8.20
2019-02-26T22:16:43.139Z,8.30
2019-02-26T22:19:22.656Z,8.30
2019-02-26T22:22:02.796Z,8.30
2019-02-26T22:24:42.687Z,8.00
2019-02-26T22:27:21.850Z,8.00
2019-02-26T22:30:00.980Z,8.30
2019-02-26T22:32:41.053Z,8.30
2019-02-26T22:35:21.057Z,8.30
2019-02-26T22:38:01.195Z,8.20
2019-02-26T22:40:40.917Z,8.20
2019-02-26T22:43:20.987Z,8.20
2019-02-26T22:46:01.658Z,8.20
2019-02-26T22:48:40.955Z,8.20
2019-02-26T22:51:21.030Z,8.10
2019-02-26T22:54:00.169Z,7.90
2019-02-26T22:56:37.486Z,8.00
2019-02-26T22:59:17.494Z,7.90
2019-02-26T23:01:57.517Z,7.80
2019-02-26T23:04:37.338Z,7.60
2019-02-26T23:07:14.927Z,7.90
2019-02-26T23:09:54.686Z,7.70
2019-02-26T23:12:34.567Z,7.80
2019-02-26T23:15:14.468Z,7.60
2019-02-26T23:17:58.117Z,7.60
2019-02-26T23:20:35.606Z,7.80
2019-02-26T23:23:15.324Z,7.70
2019-02-26T23:25:53.870Z,7.90
2019-02-26T23:28:33.069Z,7.70
2019-02-26T23:31:13.221Z,7.50
2019-02-26T23:33:52.873Z,7.60
2019-02-26T23:36:32.987Z,7.60
2019-02-26T23:39:13.025Z,7.40
2019-02-26T23:41:50.526Z,7.30
2019-02-26T23:44:30.143Z,7.50
2019-02-26T23:47:10.098Z,7.30
2019-02-26T23:49:49.987Z,7.40
2019-02-26T23:52:29.931Z,7.40
2019-02-26T23:55:13.131Z,7.40
2019-02-26T23:57:51.819Z,7.40
